Time;durP1;ratioP1;P1;durP2;ratioP2;P2;SDS_P1;SDS_P2;PMS_P1;PMS_P2;Temp;Humidity;BMP_temperature;BMP_pressure;BME280_temperature;BME280_humidity;BME280_pressure;Samples;Min_cycle;Max_cycle;Signal;HPM_P1;HPM_P2
2023/10/30 00:01:30;;;;;;;;;;;10.20;99.90;;;;;;5095615;28;19932;-33
2023/10/30 00:03:57;;;;;;;;;;;10.20;99.90;;;;;;5114655;28;19924;-33
2023/10/30 00:06:23;;;;;;;;;;;10.20;99.90;;;;;;5113721;28;19924;-33
2023/10/30 00:08:50;;;;;;;;;;;10.20;99.90;;;;;;5095206;28;20415;-33
2023/10/30 00:11:17;;;;;;;;;;;10.20;99.90;;;;;;5096838;28;20391;-33
2023/10/30 00:13:43;;;;;;;;;;;10.20;99.90;;;;;;5113830;28;20345;-33
2023/10/30 00:16:10;;;;;;;;;;;10.20;99.90;;;;;;5113929;28;19924;-33
2023/10/30 00:18:41;;;;;;;;;;;10.10;99.90;;;;;;5096667;28;20354;-33
2023/10/30 00:21:07;;;;;;;;;;;10.20;99.90;;;;;;5112722;28;20006;-34
2023/10/30 00:23:34;;;;;;;;;;;10.10;99.90;;;;;;5094586;28;19970;-32
2023/10/30 00:26:02;;;;;;;;;;;10.10;99.90;;;;;;5096989;28;19973;-36
2023/10/30 00:28:30;;;;;;;;;;;10.10;99.90;;;;;;5094675;28;19924;-32
2023/10/30 00:30:56;;;;;;;;;;;10.10;99.90;;;;;;5093985;28;20471;-32
2023/10/30 00:33:23;;;;;;;;;;;10.00;99.90;;;;;;5093834;28;20016;-33
2023/10/30 00:35:51;;;;;;;;;;;10.00;99.90;;;;;;5096105;28;19928;-31
2023/10/30 00:38:17;;;;;;;;;;;10.00;99.90;;;;;;5112798;28;19928;-31
2023/10/30 00:40:44;;;;;;;;;;;10.00;99.90;;;;;;5112268;28;19959;-32
2023/10/30 00:43:11;;;;;;;;;;;10.00;99.90;;;;;;5095326;28;19924;-33
2023/10/30 00:45:37;;;;;;;;;;;9.90;99.90;;;;;;5113687;28;19980;-32
2023/10/30 00:48:04;;;;;;;;;;;9.90;99.90;;;;;;5094150;28;19928;-33
2023/10/30 00:50:32;;;;;;;;;;;9.90;99.90;;;;;;5113306;28;19928;-33
2023/10/30 00:53:02;;;;;;;;;;;9.90;99.90;;;;;;5094719;28;20406;-33
2023/10/30 00:55:28;;;;;;;;;;;9.80;99.90;;;;;;5113477;28;19930;-32
2023/10/30 00:57:55;;;;;;;;;;;9.80;99.90;;;;;;5094848;28;19924;-33
2023/10/30 01:00:22;;;;;;;;;;;9.80;99.90;;;;;;5113269;28;19923;-33
2023/10/30 01:02:48;;;;;;;;;;;9.80;99.90;;;;;;5095151;28;19923;-33
2023/10/30 01:05:15;;;;;;;;;;;9.80;99.90;;;;;;5111628;28;19935;-31
2023/10/30 01:07:42;;;;;;;;;;;9.80;99.90;;;;;;5092652;28;19923;-34
2023/10/30 01:10:10;;;;;;;;;;;9.80;99.90;;;;;;5086669;28;20055;-32
2023/10/30 01:12:37;;;;;;;;;;;9.80;99.90;;;;;;5095461;28;19932;-32
2023/10/30 01:15:04;;;;;;;;;;;9.80;99.90;;;;;;5111609;28;19928;-32
2023/10/30 01:17:31;;;;;;;;;;;9.80;99.90;;;;;;5093926;28;20018;-32
2023/10/30 01:20:00;;;;;;;;;;;9.80;99.90;;;;;;5112641;28;19977;-33
2023/10/30 01:22:27;;;;;;;;;;;9.80;99.90;;;;;;5094335;28;19932;-32
2023/10/30 01:24:54;;;;;;;;;;;9.90;99.90;;;;;;5095862;28;19969;-33
2023/10/30 01:27:22;;;;;;;;;;;9.90;99.90;;;;;;5111053;27;19931;-33
2023/10/30 01:29:48;;;;;;;;;;;9.80;99.90;;;;;;5111776;28;19988;-33
2023/10/30 01:32:15;;;;;;;;;;;9.80;99.90;;;;;;5093659;28;19931;-33
2023/10/30 01:34:43;;;;;;;;;;;9.80;99.90;;;;;;5094201;28;19972;-32
2023/10/30 01:37:10;;;;;;;;;;;9.80;99.90;;;;;;5094934;28;19923;-33
2023/10/30 01:39:37;;;;;;;;;;;9.80;99.90;;;;;;5094731;28;20028;-33
2023/10/30 01:42:04;;;;;;;;;;;9.80;99.90;;;;;;5111647;28;20011;-32
2023/10/30 01:44:32;;;;;;;;;;;9.70;99.90;;;;;;5089526;28;19931;-31
2023/10/30 01:46:58;;;;;;;;;;;9.70;99.90;;;;;;5111765;28;19977;-32
2023/10/30 01:49:25;;;;;;;;;;;9.70;99.90;;;;;;5092816;28;19985;-32
2023/10/30 01:51:52;;;;;;;;;;;9.70;99.90;;;;;;5110443;28;19969;-33
2023/10/30 01:54:18;;;;;;;;;;;9.70;99.90;;;;;;5093847;28;19953;-33
2023/10/30 01:56:45;;;;;;;;;;;9.70;99.90;;;;;;5094178;28;20333;-32
2023/10/30 01:59:11;;;;;;;;;;;9.80;99.90;;;;;;5094472;28;19978;-34
2023/10/30 02:01:39;;;;;;;;;;;9.80;99.90;;;;;;5094194;28;19981;-32
2023/10/30 02:04:06;;;;;;;;;;;9.80;99.90;;;;;;5110797;28;19927;-33
2023/10/30 02:06:33;;;;;;;;;;;9.80;99.90;;;;;;5092585;28;19975;-32
2023/10/30 02:09:00;;;;;;;;;;;9.80;99.90;;;;;;5094523;28;19977;-32
2023/10/30 02:11:26;;;;;;;;;;;9.80;99.90;;;;;;5092559;28;19928;-34
2023/10/30 02:13:56;;;;;;;;;;;9.80;99.90;;;;;;5092873;28;19993;-34
2023/10/30 02:16:23;;;;;;;;;;;9.80;99.90;;;;;;5093481;28;19924;-32
2023/10/30 02:18:51;;;;;;;;;;;9.80;99.90;;;;;;5111377;28;19923;-33
2023/10/30 02:21:18;;;;;;;;;;;9.80;99.90;;;;;;5093093;28;19945;-32
2023/10/30 02:23:44;;;;;;;;;;;9.80;99.90;;;;;;5093820;28;19931;-33
2023/10/30 02:26:13;;;;;;;;;;;9.80;99.90;;;;;;5105148;28;20387;-32
2023/10/30 02:28:39;;;;;;;;;;;9.80;99.90;;;;;;5110041;28;19923;-33
2023/10/30 02:31:06;;;;;;;;;;;9.70;99.90;;;;;;5109117;28;19924;-32
2023/10/30 02:33:33;;;;;;;;;;;9.70;99.90;;;;;;5093590;28;19938;-33
2023/10/30 02:35:59;;;;;;;;;;;9.70;99.90;;;;;;5092729;28;19923;-33
2023/10/30 02:38:26;;;;;;;;;;;9.70;99.90;;;;;;5110837;28;19977;-33
2023/10/30 02:40:52;;;;;;;;;;;9.70;99.90;;;;;;5092760;28;19984;-33
2023/10/30 02:43:20;;;;;;;;;;;9.70;99.90;;;;;;5110477;28;19953;-33
2023/10/30 02:45:49;;;;;;;;;;;9.60;99.90;;;;;;5101551;28;19939;-33
2023/10/30 02:48:15;;;;;;;;;;;9.60;99.90;;;;;;5099775;28;19928;-32
2023/10/30 02:50:43;;;;;;;;;;;9.60;99.90;;;;;;5093317;28;19927;-33
2023/10/30 02:53:09;;;;;;;;;;;9.60;99.90;;;;;;5109292;28;19924;-31
2023/10/30 02:55:36;;;;;;;;;;;9.60;99.90;;;;;;5093793;28;19924;-32
2023/10/30 02:58:03;;;;;;;;;;;9.50;99.90;;;;;;5092532;28;19934;-32
2023/10/30 03:00:31;;;;;;;;;;;9.60;99.90;;;;;;5110522;28;19928;-33
2023/10/30 03:02:58;;;;;;;;;;;9.50;99.90;;;;;;5085391;28;20010;-33
2023/10/30 03:05:24;;;;;;;;;;;9.50;99.90;;;;;;5094201;28;19936;-32
2023/10/30 03:07:51;;;;;;;;;;;9.60;99.90;;;;;;5114333;28;19963;-32
2023/10/30 03:10:19;;;;;;;;;;;9.60;99.90;;;;;;5096259;28;20002;-32
2023/10/30 03:12:46;;;;;;;;;;;9.60;99.90;;;;;;5114092;28;20022;-31
2023/10/30 03:15:12;;;;;;;;;;;9.60;99.90;;;;;;5093421;28;19924;-33
2023/10/30 03:17:40;;;;;;;;;;;9.60;99.90;;;;;;5115603;28;19924;-32
2023/10/30 03:20:08;;;;;;;;;;;9.60;99.90;;;;;;5095315;28;19927;-32
2023/10/30 03:22:35;;;;;;;;;;;9.60;99.90;;;;;;5090112;28;20006;-32
2023/10/30 03:25:01;;;;;;;;;;;9.60;99.90;;;;;;5096959;28;19927;-32
2023/10/30 03:27:28;;;;;;;;;;;9.70;99.90;;;;;;5095586;28;19931;-32
2023/10/30 03:29:55;;;;;;;;;;;9.70;99.90;;;;;;5097724;28;19924;-32
2023/10/30 03:32:22;;;;;;;;;;;9.70;99.90;;;;;;5096777;28;19930;-32
2023/10/30 03:34:50;;;;;;;;;;;9.70;99.90;;;;;;5097051;28;19923;-32
2023/10/30 03:37:16;;;;;;;;;;;9.70;99.90;;;;;;5114728;28;19931;-32
2023/10/30 03:39:43;;;;;;;;;;;9.70;99.90;;;;;;5096193;28;19980;-33
2023/10/30 03:42:09;;;;;;;;;;;9.70;99.90;;;;;;5097529;28;19924;-32
2023/10/30 03:44:36;;;;;;;;;;;9.60;99.90;;;;;;5114424;28;20040;-32
2023/10/30 03:47:03;;;;;;;;;;;9.60;99.90;;;;;;5095966;28;20371;-33
2023/10/30 03:49:29;;;;;;;;;;;9.70;99.90;;;;;;5095468;28;19930;-32
2023/10/30 03:51:57;;;;;;;;;;;9.60;99.90;;;;;;5114582;28;19969;-32
2023/10/30 03:54:24;;;;;;;;;;;9.60;99.90;;;;;;5097402;28;19924;-33
2023/10/30 03:56:51;;;;;;;;;;;9.70;99.90;;;;;;5096532;28;19931;-33
2023/10/30 03:59:17;;;;;;;;;;;9.70;99.90;;;;;;5096001;28;19928;-33
2023/10/30 04:01:44;;;;;;;;;;;9.70;99.90;;;;;;5094883;28;20388;-33
2023/10/30 04:04:11;;;;;;;;;;;9.70;99.90;;;;;;5114519;28;19924;-34
2023/10/30 04:06:37;;;;;;;;;;;9.70;99.90;;;;;;5096110;28;19927;-32
2023/10/30 04:09:05;;;;;;;;;;;9.80;99.90;;;;;;5094696;28;19974;-33
2023/10/30 04:11:32;;;;;;;;;;;9.70;99.90;;;;;;5113203;28;19923;-33
2023/10/30 04:13:59;;;;;;;;;;;9.70;99.90;;;;;;5112222;28;19969;-33
2023/10/30 04:16:25;;;;;;;;;;;9.70;99.90;;;;;;5095414;28;19928;-34
2023/10/30 04:18:52;;;;;;;;;;;9.70;99.90;;;;;;5084254;28;19924;-33
2023/10/30 04:21:18;;;;;;;;;;;9.70;99.90;;;;;;5096371;28;20337;-33
2023/10/30 04:23:45;;;;;;;;;;;9.70;99.90;;;;;;5095631;28;19978;-32
2023/10/30 04:26:13;;;;;;;;;;;9.70;99.90;;;;;;5112931;28;19969;-32
2023/10/30 04:28:40;;;;;;;;;;;9.70;99.90;;;;;;5094131;28;20667;-33
2023/10/30 04:31:06;;;;;;;;;;;9.70;99.90;;;;;;5113287;28;19977;-33
2023/10/30 04:33:33;;;;;;;;;;;9.70;99.90;;;;;;5079897;28;20368;-32
2023/10/30 04:36:01;;;;;;;;;;;9.70;99.90;;;;;;5091129;28;19981;-32
2023/10/30 04:38:28;;;;;;;;;;;9.70;99.90;;;;;;5085186;28;19963;-32
2023/10/30 04:40:54;;;;;;;;;;;9.70;99.90;;;;;;5092770;28;19973;-32
2023/10/30 04:43:23;;;;;;;;;;;9.70;99.90;;;;;;5095037;28;19944;-33
2023/10/30 04:45:49;;;;;;;;;;;9.70;99.90;;;;;;5094663;28;19931;-32
2023/10/30 04:48:16;;;;;;;;;;;9.70;99.90;;;;;;5086411;28;19924;-32
2023/10/30 04:50:43;;;;;;;;;;;9.60;99.90;;;;;;5092339;28;19940;-33
2023/10/30 04:53:10;;;;;;;;;;;9.60;99.90;;;;;;5072394;28;19931;-33
2023/10/30 04:55:36;;;;;;;;;;;9.60;99.90;;;;;;5075298;28;19932;-33
2023/10/30 04:58:03;;;;;;;;;;;9.60;99.90;;;;;;5091772;28;20305;-33
2023/10/30 05:00:31;;;;;;;;;;;9.60;99.90;;;;;;5091101;28;20388;-33
2023/10/30 05:02:58;;;;;;;;;;;9.60;99.90;;;;;;5074194;28;19928;-34
2023/10/30 05:05:24;;;;;;;;;;;9.60;99.90;;;;;;5087955;28;19974;-33
2023/10/30 05:07:51;;;;;;;;;;;9.50;99.90;;;;;;5075614;28;19928;-32
2023/10/30 05:10:18;;;;;;;;;;;9.50;99.90;;;;;;5077283;28;20379;-32
2023/10/30 05:12:44;;;;;;;;;;;9.50;99.90;;;;;;5072977;28;19925;-32
2023/10/30 05:15:11;;;;;;;;;;;9.50;99.90;;;;;;5075421;28;19928;-34
2023/10/30 05:17:39;;;;;;;;;;;9.40;99.90;;;;;;5091764;28;20341;-33
2023/10/30 05:20:06;;;;;;;;;;;9.40;99.90;;;;;;5073636;28;19985;-32
2023/10/30 05:22:33;;;;;;;;;;;9.40;99.90;;;;;;5091188;28;19993;-32
2023/10/30 05:25:01;;;;;;;;;;;9.40;99.90;;;;;;5077180;28;19924;-32
2023/10/30 05:27:28;;;;;;;;;;;9.40;99.90;;;;;;5092028;28;19971;-32
2023/10/30 05:29:55;;;;;;;;;;;9.40;99.90;;;;;;5070965;28;19932;-34
2023/10/30 05:32:22;;;;;;;;;;;9.30;99.90;;;;;;5092059;28;20272;-33
2023/10/30 05:34:50;;;;;;;;;;;9.30;99.90;;;;;;5093562;28;19970;-33
2023/10/30 05:37:16;;;;;;;;;;;9.30;99.90;;;;;;5091704;28;19924;-32
2023/10/30 05:39:43;;;;;;;;;;;9.30;99.90;;;;;;5088560;28;19983;-34
2023/10/30 05:42:10;;;;;;;;;;;9.40;99.90;;;;;;5074425;28;20330;-32
2023/10/30 05:44:37;;;;;;;;;;;9.40;99.90;;;;;;5092212;28;19971;-32
2023/10/30 05:47:03;;;;;;;;;;;9.30;99.90;;;;;;5084605;28;19970;-33
2023/10/30 05:49:30;;;;;;;;;;;9.30;99.90;;;;;;5104454;28;20402;-32
2023/10/30 05:51:58;;;;;;;;;;;9.30;99.90;;;;;;5111464;28;20440;-32
2023/10/30 05:54:25;;;;;;;;;;;9.30;99.90;;;;;;5093855;28;20379;-32
2023/10/30 05:56:51;;;;;;;;;;;9.30;99.90;;;;;;5093003;28;20203;-32
2023/10/30 05:59:18;;;;;;;;;;;9.30;99.90;;;;;;5094418;28;20019;-33
2023/10/30 06:01:47;;;;;;;;;;;9.30;99.90;;;;;;5109090;28;19963;-36
2023/10/30 06:04:14;;;;;;;;;;;9.30;99.90;;;;;;5106401;28;20401;-32
2023/10/30 06:06:41;;;;;;;;;;;9.30;99.90;;;;;;5092925;28;19959;-32
2023/10/30 06:09:08;;;;;;;;;;;9.30;99.90;;;;;;5107184;28;19927;-33
2023/10/30 06:11:35;;;;;;;;;;;9.30;99.90;;;;;;5094328;28;20011;-32
2023/10/30 06:14:02;;;;;;;;;;;9.30;99.90;;;;;;5110350;28;19924;-32
2023/10/30 06:16:28;;;;;;;;;;;9.30;99.90;;;;;;5090906;28;19928;-32
2023/10/30 06:18:55;;;;;;;;;;;9.30;99.90;;;;;;5108419;28;19924;-33
2023/10/30 06:21:22;;;;;;;;;;;9.30;99.90;;;;;;5110124;28;19981;-32
2023/10/30 06:23:48;;;;;;;;;;;9.30;99.90;;;;;;5110140;28;19928;-32
2023/10/30 06:26:16;;;;;;;;;;;9.40;99.90;;;;;;5087948;28;19935;-32
2023/10/30 06:28:43;;;;;;;;;;;9.40;99.90;;;;;;5087327;28;20465;-32
2023/10/30 06:31:16;;;;;;;;;;;9.40;99.90;;;;;;5111431;28;19924;-31
2023/10/30 06:33:42;;;;;;;;;;;9.40;99.90;;;;;;5107543;28;20929;-33
2023/10/30 06:36:09;;;;;;;;;;;9.40;99.90;;;;;;5104215;28;20024;-31
2023/10/30 06:38:36;;;;;;;;;;;9.40;99.90;;;;;;5090472;28;19973;-33
2023/10/30 06:41:02;;;;;;;;;;;9.50;99.90;;;;;;5084000;28;20283;-33
2023/10/30 06:43:30;;;;;;;;;;;9.50;99.90;;;;;;5096616;28;20268;-32
2023/10/30 06:45:59;;;;;;;;;;;9.60;99.90;;;;;;5108620;28;19928;-32
2023/10/30 06:48:25;;;;;;;;;;;9.60;99.90;;;;;;5114903;28;19948;-33
2023/10/30 06:50:52;;;;;;;;;;;9.60;99.90;;;;;;5114518;28;20295;-32
2023/10/30 06:53:19;;;;;;;;;;;9.70;99.90;;;;;;5095369;28;20388;-33
2023/10/30 06:55:45;;;;;;;;;;;9.70;99.90;;;;;;5096036;28;20386;-32
2023/10/30 06:58:12;;;;;;;;;;;9.70;99.90;;;;;;5096815;28;19960;-32
2023/10/30 07:00:41;;;;;;;;;;;9.80;99.90;;;;;;5095233;28;19927;-32
2023/10/30 07:03:08;;;;;;;;;;;9.80;99.90;;;;;;5097754;28;20391;-32
2023/10/30 07:05:35;;;;;;;;;;;9.80;99.90;;;;;;5111083;28;19924;-32
2023/10/30 07:08:01;;;;;;;;;;;9.80;99.90;;;;;;5094766;28;19972;-32
2023/10/30 07:10:28;;;;;;;;;;;9.90;99.90;;;;;;5098122;28;19928;-32
2023/10/30 07:12:54;;;;;;;;;;;9.90;99.90;;;;;;5097264;28;19928;-32
2023/10/30 07:15:21;;;;;;;;;;;9.90;99.90;;;;;;5116208;28;19924;-32
2023/10/30 07:17:49;;;;;;;;;;;10.00;99.90;;;;;;5097341;28;20407;-32
2023/10/30 07:20:16;;;;;;;;;;;10.00;99.90;;;;;;5115471;28;20334;-33
2023/10/30 07:22:42;;;;;;;;;;;10.00;99.90;;;;;;5098050;28;19923;-32
2023/10/30 07:25:10;;;;;;;;;;;10.00;99.90;;;;;;5114854;28;19928;-32
2023/10/30 07:27:37;;;;;;;;;;;10.00;99.90;;;;;;5097911;28;19927;-33
2023/10/30 07:30:04;;;;;;;;;;;10.10;99.90;;;;;;5115867;28;19927;-32
2023/10/30 07:32:31;;;;;;;;;;;10.10;99.90;;;;;;5116043;28;19953;-36
2023/10/30 07:34:59;;;;;;;;;;;10.20;99.90;;;;;;5114900;28;19969;-32
2023/10/30 07:37:27;;;;;;;;;;;10.20;99.90;;;;;;5097721;28;19977;-32
2023/10/30 07:39:53;;;;;;;;;;;10.20;99.90;;;;;;5115058;28;19931;-32
2023/10/30 07:42:20;;;;;;;;;;;10.30;99.90;;;;;;5115987;28;19927;-32
2023/10/30 07:44:46;;;;;;;;;;;10.30;99.90;;;;;;5114528;28;19924;-33
2023/10/30 07:47:13;;;;;;;;;;;10.40;99.90;;;;;;5097699;28;19924;-32
2023/10/30 07:49:40;;;;;;;;;;;10.50;99.90;;;;;;5113566;28;20311;-32
2023/10/30 07:52:08;;;;;;;;;;;10.50;99.90;;;;;;5097172;28;20265;-32
2023/10/30 07:54:34;;;;;;;;;;;10.50;99.90;;;;;;5115622;28;19924;-32
2023/10/30 07:57:01;;;;;;;;;;;10.60;99.90;;;;;;5115497;28;19969;-32
2023/10/30 07:59:28;;;;;;;;;;;10.60;99.90;;;;;;5097517;28;20330;-33
2023/10/30 08:01:54;;;;;;;;;;;10.70;99.90;;;;;;5115437;28;20011;-32
2023/10/30 08:04:22;;;;;;;;;;;10.70;99.90;;;;;;5115314;28;19924;-33
2023/10/30 08:06:49;;;;;;;;;;;10.70;99.90;;;;;;5115197;28;20368;-33
2023/10/30 08:09:17;;;;;;;;;;;10.80;99.90;;;;;;5097082;28;19988;-33
2023/10/30 08:11:43;;;;;;;;;;;10.80;99.90;;;;;;5115347;28;19962;-33
2023/10/30 08:14:10;;;;;;;;;;;10.90;99.90;;;;;;5096807;28;19982;-33
2023/10/30 08:16:36;;;;;;;;;;;10.90;99.90;;;;;;5114178;28;19924;-32
2023/10/30 08:19:03;;;;;;;;;;;11.00;99.90;;;;;;5114659;28;19924;-33
2023/10/30 08:21:30;;;;;;;;;;;11.00;99.90;;;;;;5096951;28;19981;-33
2023/10/30 08:23:56;;;;;;;;;;;11.10;99.90;;;;;;5112841;28;20330;-32
2023/10/30 08:26:25;;;;;;;;;;;11.20;99.90;;;;;;5096367;28;19973;-33
2023/10/30 08:28:52;;;;;;;;;;;11.30;99.90;;;;;;5114803;28;20325;-34
2023/10/30 08:31:19;;;;;;;;;;;11.40;99.90;;;;;;5096535;28;19976;-33
2023/10/30 08:33:46;;;;;;;;;;;11.40;99.90;;;;;;5095320;28;19923;-33
2023/10/30 08:36:20;;;;;;;;;;;11.50;99.90;;;;;;5114723;28;19976;-34
2023/10/30 08:38:46;;;;;;;;;;;11.60;99.90;;;;;;5114795;28;19924;-34
2023/10/30 08:41:15;;;;;;;;;;;11.60;99.90;;;;;;5114584;28;19970;-32
2023/10/30 08:43:43;;;;;;;;;;;11.70;99.90;;;;;;5096076;28;19972;-32
2023/10/30 08:46:10;;;;;;;;;;;11.80;99.90;;;;;;5113082;28;19927;-32
2023/10/30 08:48:36;;;;;;;;;;;11.80;99.90;;;;;;5096179;28;19930;-32
2023/10/30 08:51:04;;;;;;;;;;;11.90;99.90;;;;;;5096400;28;19931;-32
2023/10/30 08:53:31;;;;;;;;;;;11.90;99.90;;;;;;5114243;28;19923;-31
2023/10/30 08:55:58;;;;;;;;;;;12.00;99.90;;;;;;5095033;28;19931;-32
2023/10/30 08:58:24;;;;;;;;;;;12.10;99.90;;;;;;5096251;28;20359;-33
2023/10/30 09:00:53;;;;;;;;;;;12.10;99.90;;;;;;5095823;28;19924;-33
2023/10/30 09:03:20;;;;;;;;;;;12.10;99.90;;;;;;5093850;28;19993;-34
2023/10/30 09:05:47;;;;;;;;;;;12.20;99.90;;;;;;5113121;28;19923;-33
2023/10/30 09:08:14;;;;;;;;;;;12.30;99.90;;;;;;5114146;28;19959;-33
2023/10/30 09:10:40;;;;;;;;;;;12.30;99.90;;;;;;5095824;28;19924;-33
2023/10/30 09:13:07;;;;;;;;;;;12.40;99.90;;;;;;5095292;28;19924;-33
2023/10/30 09:15:33;;;;;;;;;;;12.50;99.90;;;;;;5113800;28;19963;-33
2023/10/30 09:18:01;;;;;;;;;;;12.60;99.90;;;;;;5095845;28;19971;-32
2023/10/30 09:20:28;;;;;;;;;;;12.60;99.90;;;;;;5094127;28;20022;-37
2023/10/30 09:22:55;;;;;;;;;;;12.70;99.90;;;;;;5095252;28;19976;-32
2023/10/30 09:25:22;;;;;;;;;;;12.70;99.90;;;;;;5094709;28;19976;-33
2023/10/30 09:27:50;;;;;;;;;;;12.90;99.90;;;;;;5095795;28;19947;-33
2023/10/30 09:30:16;;;;;;;;;;;12.90;99.90;;;;;;5095354;28;19976;-32
2023/10/30 09:32:43;;;;;;;;;;;13.00;99.90;;;;;;5111857;28;20303;-32
2023/10/30 09:35:11;;;;;;;;;;;13.10;99.90;;;;;;5095194;28;19927;-32
2023/10/30 09:37:39;;;;;;;;;;;13.10;99.90;;;;;;5113551;28;19935;-32
2023/10/30 09:40:06;;;;;;;;;;;13.10;99.90;;;;;;5095715;28;20011;-33
2023/10/30 09:42:33;;;;;;;;;;;13.20;99.90;;;;;;5111792;28;19959;-32
2023/10/30 09:45:00;;;;;;;;;;;13.20;99.90;;;;;;5113530;28;20010;-32
2023/10/30 09:47:27;;;;;;;;;;;13.20;99.90;;;;;;5113330;28;20379;-32
2023/10/30 09:49:53;;;;;;;;;;;13.20;99.90;;;;;;5094501;28;20367;-33
2023/10/30 09:52:21;;;;;;;;;;;13.10;99.90;;;;;;5112521;28;20044;-33
2023/10/30 09:54:48;;;;;;;;;;;13.10;99.90;;;;;;5095394;28;19978;-34
2023/10/30 09:57:14;;;;;;;;;;;12.90;99.90;;;;;;5095381;28;19923;-35
2023/10/30 09:59:41;;;;;;;;;;;12.90;99.90;;;;;;5113009;28;19924;-33
2023/10/30 10:02:08;;;;;;;;;;;12.80;99.90;;;;;;5113060;28;19928;-32
2023/10/30 10:04:36;;;;;;;;;;;12.70;99.90;;;;;;5093629;28;19927;-34
2023/10/30 10:07:02;;;;;;;;;;;12.70;99.90;;;;;;5095351;28;20303;-35
2023/10/30 10:09:30;;;;;;;;;;;12.60;99.90;;;;;;5113100;28;19949;-33
2023/10/30 10:11:58;;;;;;;;;;;12.50;99.90;;;;;;5095183;28;19930;-33
2023/10/30 10:14:24;;;;;;;;;;;12.40;99.90;;;;;;5093048;28;19973;-32
2023/10/30 10:16:51;;;;;;;;;;;12.40;99.90;;;;;;5113026;28;20375;-32
2023/10/30 10:19:18;;;;;;;;;;;12.40;99.90;;;;;;5094891;28;19923;-33
2023/10/30 10:21:46;;;;;;;;;;;12.40;99.90;;;;;;5095049;28;19924;-33
2023/10/30 10:24:13;;;;;;;;;;;12.50;99.90;;;;;;5111273;28;19959;-32
2023/10/30 10:26:41;;;;;;;;;;;12.60;99.90;;;;;;5112922;28;19927;-32
2023/10/30 10:29:07;;;;;;;;;;;12.70;99.90;;;;;;5094756;28;19924;-33
2023/10/30 10:31:34;;;;;;;;;;;12.70;99.90;;;;;;5112805;28;19928;-33
2023/10/30 10:34:01;;;;;;;;;;;12.70;99.90;;;;;;5110832;28;19932;-32
2023/10/30 10:36:30;;;;;;;;;;;12.70;99.90;;;;;;5094597;28;19928;-33
2023/10/30 10:38:58;;;;;;;;;;;12.80;99.90;;;;;;5109867;28;20273;-33
2023/10/30 10:41:24;;;;;;;;;;;12.80;99.90;;;;;;5092468;28;19931;-34
2023/10/30 10:43:52;;;;;;;;;;;12.90;99.90;;;;;;5094409;28;20011;-33
2023/10/30 10:46:19;;;;;;;;;;;13.00;99.90;;;;;;5094731;28;19973;-35
2023/10/30 10:48:46;;;;;;;;;;;13.10;99.90;;;;;;5094159;28;19928;-33
2023/10/30 10:51:12;;;;;;;;;;;13.10;99.90;;;;;;5109948;28;19976;-33
2023/10/30 10:53:39;;;;;;;;;;;13.20;99.90;;;;;;5094247;28;19969;-34
2023/10/30 10:56:07;;;;;;;;;;;13.30;99.90;;;;;;5094800;28;19963;-33
2023/10/30 10:58:36;;;;;;;;;;;13.30;99.90;;;;;;5094445;28;19977;-34
2023/10/30 11:01:04;;;;;;;;;;;13.30;99.90;;;;;;5092779;28;19969;-33
2023/10/30 11:03:31;;;;;;;;;;;13.40;99.90;;;;;;5112548;28;19931;-33
2023/10/30 11:05:58;;;;;;;;;;;13.30;99.90;;;;;;5094551;28;19924;-34
2023/10/30 11:08:29;;;;;;;;;;;13.40;99.90;;;;;;5092336;28;20010;-34
2023/10/30 11:10:57;;;;;;;;;;;13.50;99.90;;;;;;5094231;28;19973;-33
2023/10/30 11:13:26;;;;;;;;;;;13.70;99.90;;;;;;5112920;28;19992;-33
2023/10/30 11:15:53;;;;;;;;;;;13.70;99.90;;;;;;5112410;28;19923;-34
2023/10/30 11:18:24;;;;;;;;;;;13.80;99.90;;;;;;5089402;28;20388;-33
2023/10/30 11:20:54;;;;;;;;;;;13.70;99.90;;;;;;5112531;28;20011;-33
2023/10/30 11:23:36;;;;;;;;;;;13.70;99.90;;;;;;5112562;28;19982;-33
2023/10/30 11:26:02;;;;;;;;;;;13.70;99.90;;;;;;5114246;28;19927;-34
2023/10/30 11:28:29;;;;;;;;;;;13.80;99.90;;;;;;5114472;28;19924;-34
2023/10/30 11:30:56;;;;;;;;;;;13.80;99.90;;;;;;5097839;28;19928;-34
2023/10/30 11:33:27;;;;;;;;;;;13.80;99.90;;;;;;5116010;28;19923;-33
2023/10/30 11:36:09;;;;;;;;;;;13.90;99.90;;;;;;5098145;28;19924;-34
2023/10/30 11:38:47;;;;;;;;;;;13.90;99.90;;;;;;5114136;28;20336;-33
2023/10/30 11:41:15;;;;;;;;;;;13.80;99.90;;;;;;5097902;28;19931;-34
2023/10/30 11:43:42;;;;;;;;;;;13.80;99.90;;;;;;5115989;28;19981;-33
2023/10/30 11:46:08;;;;;;;;;;;13.80;99.90;;;;;;5115925;28;19924;-33
2023/10/30 11:48:38;;;;;;;;;;;13.90;99.90;;;;;;5096492;28;19931;-37
2023/10/30 11:51:05;;;;;;;;;;;13.90;99.90;;;;;;5097396;28;19923;-33
2023/10/30 11:53:32;;;;;;;;;;;14.00;99.90;;;;;;5097248;28;20375;-33
2023/10/30 11:55:59;;;;;;;;;;;14.00;99.90;;;;;;5114304;28;19928;-33
2023/10/30 11:58:25;;;;;;;;;;;14.00;99.90;;;;;;5096100;28;19924;-32
2023/10/30 12:00:52;;;;;;;;;;;14.00;99.90;;;;;;5097584;28;19928;-33
2023/10/30 12:03:19;;;;;;;;;;;13.90;99.90;;;;;;5114140;28;19924;-35
2023/10/30 12:05:47;;;;;;;;;;;13.90;99.90;;;;;;5113329;28;19924;-33
2023/10/30 12:08:14;;;;;;;;;;;13.90;99.90;;;;;;5097413;28;19923;-33
2023/10/30 12:10:40;;;;;;;;;;;13.80;99.90;;;;;;5115278;28;19931;-33
2023/10/30 12:13:08;;;;;;;;;;;13.90;99.90;;;;;;5115250;28;19928;-33
2023/10/30 12:15:35;;;;;;;;;;;13.90;99.90;;;;;;5096486;28;19931;-33
2023/10/30 12:18:03;;;;;;;;;;;13.90;99.90;;;;;;5115234;28;20416;-33
2023/10/30 12:20:30;;;;;;;;;;;13.90;99.90;;;;;;5115326;28;20334;-33
2023/10/30 12:22:58;;;;;;;;;;;13.90;99.90;;;;;;5115119;28;19980;-33
2023/10/30 12:25:24;;;;;;;;;;;13.90;99.90;;;;;;5096152;28;19923;-34
2023/10/30 12:27:51;;;;;;;;;;;13.90;99.90;;;;;;5096929;28;20383;-34
2023/10/30 12:30:18;;;;;;;;;;;13.90;99.90;;;;;;5110102;28;20372;-35
2023/10/30 12:32:52;;;;;;;;;;;13.90;99.90;;;;;;5111918;28;19936;-36
2023/10/30 12:35:19;;;;;;;;;;;13.90;99.90;;;;;;5095527;28;20431;-33
2023/10/30 12:37:46;;;;;;;;;;;13.90;99.90;;;;;;5076319;28;19924;-32
2023/10/30 12:40:14;;;;;;;;;;;13.90;99.90;;;;;;5109573;28;19928;-33
2023/10/30 12:42:41;;;;;;;;;;;13.90;99.90;;;;;;5094499;28;20416;-32
2023/10/30 12:45:09;;;;;;;;;;;13.80;99.90;;;;;;5094219;28;20352;-33
2023/10/30 12:47:35;;;;;;;;;;;13.90;99.90;;;;;;5114305;28;20272;-33
2023/10/30 12:50:03;;;;;;;;;;;13.90;99.90;;;;;;5096306;28;19924;-32
2023/10/30 12:52:29;;;;;;;;;;;14.00;99.90;;;;;;5109084;28;20318;-32
2023/10/30 12:54:56;;;;;;;;;;;13.90;99.90;;;;;;5114379;28;20287;-31
2023/10/30 12:57:24;;;;;;;;;;;14.00;99.90;;;;;;5113476;28;20279;-33
2023/10/30 12:59:51;;;;;;;;;;;14.00;99.90;;;;;;5090796;28;19927;-32
2023/10/30 13:02:17;;;;;;;;;;;14.00;99.90;;;;;;5112863;28;19927;-34
2023/10/30 13:04:44;;;;;;;;;;;14.00;99.90;;;;;;5095614;28;20374;-33
2023/10/30 13:07:11;;;;;;;;;;;14.10;99.90;;;;;;5113165;28;20608;-33
2023/10/30 13:09:37;;;;;;;;;;;14.10;99.90;;;;;;5114257;28;19928;-33
2023/10/30 13:12:04;;;;;;;;;;;14.10;99.90;;;;;;5095750;28;19923;-33
2023/10/30 13:14:32;;;;;;;;;;;14.10;99.90;;;;;;5095667;28;19928;-32
2023/10/30 13:16:59;;;;;;;;;;;14.10;99.90;;;;;;5094803;28;19923;-31
2023/10/30 13:19:26;;;;;;;;;;;14.20;99.90;;;;;;5113749;28;19924;-33
2023/10/30 13:21:52;;;;;;;;;;;14.20;99.90;;;;;;5094262;28;19928;-33
2023/10/30 13:24:19;;;;;;;;;;;14.20;99.90;;;;;;5113878;28;19976;-33
2023/10/30 13:26:46;;;;;;;;;;;14.20;99.90;;;;;;5112673;28;20414;-32
2023/10/30 13:29:13;;;;;;;;;;;14.20;99.90;;;;;;5095129;28;19924;-33
2023/10/30 13:31:41;;;;;;;;;;;14.20;99.90;;;;;;5094663;28;19971;-33
2023/10/30 13:34:07;;;;;;;;;;;14.10;99.90;;;;;;5095573;28;19924;-33
2023/10/30 13:36:34;;;;;;;;;;;14.10;99.90;;;;;;5113565;28;20659;-32
2023/10/30 13:39:01;;;;;;;;;;;14.10;99.90;;;;;;5095726;28;19923;-34
2023/10/30 13:41:27;;;;;;;;;;;14.10;99.90;;;;;;5093357;28;19931;-32
2023/10/30 13:43:54;;;;;;;;;;;14.20;99.90;;;;;;5095304;28;19985;-32
2023/10/30 13:46:21;;;;;;;;;;;14.10;99.90;;;;;;5112472;28;20049;-32
2023/10/30 13:48:49;;;;;;;;;;;14.20;99.90;;;;;;5110001;28;19930;-32
2023/10/30 13:51:16;;;;;;;;;;;14.20;99.90;;;;;;5093352;28;19927;-33
2023/10/30 13:53:43;;;;;;;;;;;14.20;99.90;;;;;;5089432;28;19923;-33
2023/10/30 13:56:09;;;;;;;;;;;14.20;99.90;;;;;;5094976;28;19924;-33
2023/10/30 13:58:36;;;;;;;;;;;14.20;99.90;;;;;;5111807;28;19963;-33
2023/10/30 14:01:03;;;;;;;;;;;14.20;99.90;;;;;;5109544;28;19931;-33
2023/10/30 14:03:30;;;;;;;;;;;14.20;99.90;;;;;;5094613;28;19968;-32
2023/10/30 14:05:58;;;;;;;;;;;14.20;99.90;;;;;;5094742;28;19923;-33
2023/10/30 14:08:24;;;;;;;;;;;14.20;99.90;;;;;;5095097;28;20257;-33
2023/10/30 14:10:51;;;;;;;;;;;14.20;99.90;;;;;;5111318;28;19923;-32
2023/10/30 14:13:18;;;;;;;;;;;14.20;99.90;;;;;;5112927;28;19977;-33
2023/10/30 14:15:44;;;;;;;;;;;14.20;99.90;;;;;;5111254;28;19924;-32
2023/10/30 14:18:11;;;;;;;;;;;14.20;99.90;;;;;;5093861;28;20438;-32
2023/10/30 14:20:38;;;;;;;;;;;14.20;99.90;;;;;;5112807;28;19963;-34
2023/10/30 14:23:06;;;;;;;;;;;14.10;99.90;;;;;;5091411;28;19928;-32